Time;durP1;ratioP1;P1;durP2;ratioP2;P2;SDS_P1;SDS_P2;PMS_P1;PMS_P2;Temp;Humidity;BMP_temperature;BMP_pressure;BME280_temperature;BME280_humidity;BME280_pressure;Samples;Min_cycle;Max_cycle;Signal;HPM_P1;HPM_P2
2023/09/01 00:00:14;;;;;;;2.60;1.50;;;;;;;17.10;64.34;93668.88;515603;28;1914;-46
2023/09/01 00:00:30;;;;;;;1.98;1.42;;;;;;;17.09;64.35;93665.34;515189;28;1204;-45
2023/09/01 00:00:46;;;;;;;1.87;1.20;;;;;;;17.09;64.41;93673.72;515726;28;878;-45
2023/09/01 00:01:03;;;;;;;2.45;1.30;;;;;;;17.08;64.63;93669.47;515708;28;907;-48
2023/09/01 00:01:18;;;;;;;2.22;1.35;;;;;;;17.08;64.43;93669.47;515705;28;918;-46
2023/09/01 00:01:33;;;;;;;1.70;1.20;;;;;;;17.09;64.58;93670.19;515613;28;2496;-46
2023/09/01 00:01:49;;;;;;;1.43;1.30;;;;;;;17.09;64.61;93670.19;515190;28;769;-46
2023/09/01 00:02:04;;;;;;;1.67;1.58;;;;;;;17.08;64.53;93668.72;513459;28;1154;-48
2023/09/01 00:02:19;;;;;;;1.67;1.50;;;;;;;17.09;64.67;93664.59;513904;28;992;-47
2023/09/01 00:02:35;;;;;;;2.77;1.47;;;;;;;17.08;64.69;93671.50;513366;28;1616;-46
2023/09/01 00:02:51;;;;;;;3.65;1.83;;;;;;;17.08;64.77;93665.94;513371;28;831;-47
2023/09/01 00:03:06;;;;;;;2.50;1.80;;;;;;;17.07;64.63;93672.81;511952;28;848;-46
2023/09/01 00:03:21;;;;;;;2.50;1.67;;;;;;;17.07;64.60;93675.63;513766;28;883;-46
2023/09/01 00:03:37;;;;;;;2.50;1.53;;;;;;;17.06;64.46;93674.91;513870;28;1198;-47
2023/09/01 00:03:52;;;;;;;1.92;1.50;;;;;;;17.09;64.53;93675.75;511892;28;931;-47
2023/09/01 00:04:11;;;;;;;1.57;1.43;;;;;;;17.09;64.53;93679.28;512297;28;1098;-47
2023/09/01 00:04:29;;;;;;;1.40;1.30;;;;;;;17.10;64.32;93680.03;513779;28;1211;-46
2023/09/01 00:04:44;;;;;;;1.85;1.40;;;;;;;17.10;64.26;93680.03;513963;28;855;-47
2023/09/01 00:05:00;;;;;;;1.87;1.57;;;;;;;17.10;64.33;93680.03;513883;28;1126;-47
2023/09/01 00:05:15;;;;;;;1.90;1.60;;;;;;;17.10;64.05;93680.03;513921;28;877;-48
2023/09/01 00:05:34;;;;;;;2.20;1.80;;;;;;;17.09;64.10;93675.75;514047;28;947;-47
2023/09/01 00:05:49;;;;;;;3.47;2.10;;;;;;;17.09;64.13;93679.28;513937;28;912;-47
2023/09/01 00:06:11;;;;;;;3.78;2.10;;;;;;;17.09;64.03;93673.72;513873;28;873;-48
2023/09/01 00:06:26;;;;;;;2.65;1.77;;;;;;;17.09;64.02;93681.34;512704;28;1186;-47
2023/09/01 00:06:42;;;;;;;2.53;1.73;;;;;;;17.08;64.11;93674.31;514022;28;781;-47
2023/09/01 00:06:57;;;;;;;2.97;2.30;;;;;;;17.08;64.01;93671.50;513313;28;1683;-47
2023/09/01 00:07:12;;;;;;;4.80;3.30;;;;;;;17.09;63.92;93670.19;513181;28;1068;-47
2023/09/01 00:07:28;;;;;;;6.60;3.53;;;;;;;17.08;64.03;93669.47;513906;28;1071;-47
2023/09/01 00:07:43;;;;;;;6.27;3.20;;;;;;;17.08;64.33;93677.84;513913;28;944;-48
2023/09/01 00:07:59;;;;;;;4.65;2.97;;;;;;;17.09;64.04;93678.53;513429;28;888;-47
2023/09/01 00:08:14;;;;;;;5.00;2.80;;;;;;;17.08;64.04;93674.31;513850;28;1144;-48
2023/09/01 00:08:31;;;;;;;5.93;3.20;;;;;;;17.08;63.99;93682.66;513879;28;843;-47
2023/09/01 00:08:46;;;;;;;6.68;3.92;;;;;;;17.08;63.89;93680.63;513902;28;903;-47
2023/09/01 00:09:03;;;;;;;6.95;4.18;;;;;;;17.08;63.73;93679.88;514004;28;781;-47
2023/09/01 00:09:19;;;;;;;7.13;3.75;;;;;;;17.07;63.71;93678.41;513858;28;922;-47
2023/09/01 00:09:34;;;;;;;7.13;3.70;;;;;;;17.06;63.53;93686.06;513585;28;1545;-46
2023/09/01 00:09:50;;;;;;;5.93;3.60;;;;;;;17.07;63.68;93679.16;512736;28;840;-46
2023/09/01 00:10:06;;;;;;;5.07;3.20;;;;;;;17.05;63.65;93675.47;513642;28;1504;-47
2023/09/01 00:10:21;;;;;;;5.15;3.10;;;;;;;17.02;63.85;93666.22;514001;28;817;-46
2023/09/01 00:10:39;;;;;;;5.93;3.00;;;;;;;17.03;63.76;93666.94;513918;28;825;-48
2023/09/01 00:10:54;;;;;;;5.88;3.20;;;;;;;17.00;63.75;93670.94;513967;28;838;-46
2023/09/01 00:11:11;;;;;;;5.40;3.40;;;;;;;17.01;63.90;93675.16;513899;28;801;-47
2023/09/01 00:11:26;;;;;;;4.85;3.28;;;;;;;17.00;63.99;93682.78;513939;28;858;-47
2023/09/01 00:11:41;;;;;;;4.87;3.47;;;;;;;16.98;63.89;93682.66;513958;28;1115;-46
2023/09/01 00:11:57;;;;;;;4.50;3.33;;;;;;;16.99;63.86;93677.81;513802;28;880;-46
2023/09/01 00:12:12;;;;;;;4.88;2.80;;;;;;;16.99;63.85;93683.41;513660;28;1550;-47
2023/09/01 00:12:27;;;;;;;5.97;2.90;;;;;;;16.98;63.79;93681.94;512482;28;1034;-47
2023/09/01 00:12:43;;;;;;;5.17;2.90;;;;;;;16.96;63.77;93676.94;513733;28;1092;-46
2023/09/01 00:12:59;;;;;;;4.10;2.50;;;;;;;16.92;63.83;93673.84;513987;28;766;-46
2023/09/01 00:13:15;;;;;;;5.10;2.72;;;;;;;16.93;63.86;93678.13;513807;28;857;-47
2023/09/01 00:13:30;;;;;;;6.10;2.87;;;;;;;16.92;63.82;93673.09;513926;28;1485;-49
2023/09/01 00:13:46;;;;;;;4.72;2.58;;;;;;;16.91;63.87;93674.44;512052;28;906;-47
2023/09/01 00:14:02;;;;;;;4.23;2.60;;;;;;;16.90;63.97;93672.94;511892;28;1036;-46
2023/09/01 00:14:17;;;;;;;5.28;2.85;;;;;;;16.87;64.17;93662.97;513636;28;925;-47
2023/09/01 00:14:33;;;;;;;4.77;2.77;;;;;;;16.86;64.10;93669.88;514002;28;810;-46
2023/09/01 00:14:48;;;;;;;4.00;2.83;;;;;;;16.81;64.11;93668.84;513949;28;770;-47
2023/09/01 00:15:04;;;;;;;3.63;2.70;;;;;;;16.79;64.50;93662.38;513821;28;841;-48
2023/09/01 00:15:20;;;;;;;4.03;2.60;;;;;;;16.78;64.61;93677.63;514152;28;1214;-46
2023/09/01 00:15:35;;;;;;;5.67;2.77;;;;;;;16.77;64.55;93673.38;513708;28;1259;-46
2023/09/01 00:15:50;;;;;;;6.03;2.80;;;;;;;16.76;64.80;93672.66;513853;28;838;-47
2023/09/01 00:16:08;;;;;;;6.63;2.97;;;;;;;16.76;64.94;93677.50;513669;28;853;-46
2023/09/01 00:16:23;;;;;;;5.40;3.20;;;;;;;16.73;65.04;93668.22;513799;28;861;-46
2023/09/01 00:16:38;;;;;;;3.58;2.90;;;;;;;16.76;64.85;93674.69;513854;28;797;-47
2023/09/01 00:16:54;;;;;;;3.30;2.80;;;;;;;16.76;64.95;93675.44;513064;28;1649;-46
2023/09/01 00:17:09;;;;;;;3.20;2.60;;;;;;;16.78;64.92;93674.84;513633;28;910;-46
2023/09/01 00:17:25;;;;;;;3.65;2.60;;;;;;;16.78;64.86;93683.97;513730;28;928;-46
2023/09/01 00:17:40;;;;;;;5.07;2.80;;;;;;;16.78;64.84;93678.38;512053;28;888;-47
2023/09/01 00:17:55;;;;;;;5.27;2.97;;;;;;;16.78;64.69;93683.97;511883;28;858;-46
2023/09/01 00:18:11;;;;;;;3.42;2.55;;;;;;;16.77;64.67;93685.25;512841;28;872;-47
2023/09/01 00:18:26;;;;;;;3.63;2.50;;;;;;;16.78;64.66;93680.44;513912;28;939;-46
2023/09/01 00:18:41;;;;;;;3.57;2.57;;;;;;;16.77;64.66;93682.47;513958;28;1083;-48
2023/09/01 00:18:57;;;;;;;3.33;2.10;;;;;;;16.76;64.59;93677.50;513904;28;900;-46
2023/09/01 00:19:12;;;;;;;4.23;2.20;;;;;;;16.75;64.53;93681.59;513843;28;919;-48
2023/09/01 00:19:28;;;;;;;3.90;2.30;;;;;;;16.75;64.54;93684.38;513909;28;967;-45
2023/09/01 00:19:43;;;;;;;3.35;2.42;;;;;;;16.76;64.71;93683.06;514046;28;793;-46
2023/09/01 00:19:58;;;;;;;3.00;2.27;;;;;;;16.75;64.78;93676.00;512394;28;1748;-46
2023/09/01 00:20:14;;;;;;;3.37;2.00;;;;;;;16.76;65.08;93683.06;513674;28;1887;-45
2023/09/01 00:20:34;;;;;;;3.38;2.25;;;;;;;16.75;64.91;93676.00;514192;28;865;-45
2023/09/01 00:20:50;;;;;;;3.92;2.35;;;;;;;16.75;64.90;93679.53;513841;28;888;-46
2023/09/01 00:21:05;;;;;;;4.05;2.70;;;;;;;16.74;64.94;93675.25;513917;28;860;-46
2023/09/01 00:21:21;;;;;;;4.57;3.10;;;;;;;16.73;65.16;93678.66;514041;28;835;-46
2023/09/01 00:21:36;;;;;;;4.47;3.00;;;;;;;16.71;65.18;93676.44;513809;28;1123;-47
2023/09/01 00:21:53;;;;;;;4.70;2.90;;;;;;;16.70;65.20;93671.47;513988;28;1670;-46
2023/09/01 00:22:08;;;;;;;6.40;3.30;;;;;;;16.68;65.12;93678.34;512412;28;1005;-46
2023/09/01 00:22:24;;;;;;;7.50;3.57;;;;;;;16.71;65.05;93676.44;513917;28;850;-46
2023/09/01 00:22:39;;;;;;;6.07;3.33;;;;;;;16.71;65.00;93678.50;513412;28;1790;-46
2023/09/01 00:22:55;;;;;;;5.85;3.40;;;;;;;16.71;64.60;93676.44;513817;28;770;-47
2023/09/01 00:23:10;;;;;;;5.53;3.17;;;;;;;16.65;65.03;93670.44;513677;28;1040;-45
2023/09/01 00:23:26;;;;;;;4.87;2.83;;;;;;;16.73;65.02;93684.22;513757;28;873;-45
2023/09/01 00:23:42;;;;;;;5.53;3.13;;;;;;;16.73;64.99;93687.00;513738;28;934;-46
2023/09/01 00:23:57;;;;;;;5.50;3.17;;;;;;;16.73;65.12;93676.59;513709;28;940;-44
2023/09/01 00:24:12;;;;;;;5.68;3.25;;;;;;;16.73;64.96;93687.00;513763;28;854;-45
2023/09/01 00:24:31;;;;;;;5.53;3.17;;;;;;;16.72;64.97;93683.47;512637;28;1383;-46
2023/09/01 00:24:47;;;;;;;5.00;2.80;;;;;;;16.71;65.11;93682.03;513803;28;960;-44
2023/09/01 00:25:03;;;;;;;5.07;3.00;;;;;;;16.73;65.19;93687.00;513979;28;781;-45
2023/09/01 00:25:18;;;;;;;4.22;3.15;;;;;;;16.73;65.10;93681.44;513726;28;925;-44
2023/09/01 00:25:34;;;;;;;4.43;3.05;;;;;;;16.74;65.07;93685.72;513769;28;823;-45
2023/09/01 00:25:55;;;;;;;5.57;3.40;;;;;;;16.73;65.06;93678.66;512289;28;1739;-45
2023/09/01 00:26:10;;;;;;;5.07;3.65;;;;;;;16.75;65.13;93678.78;512488;28;916;-46
2023/09/01 00:26:28;;;;;;;5.10;3.65;;;;;;;16.74;65.01;93682.91;513709;28;943;-45
2023/09/01 00:26:43;;;;;;;5.43;3.70;;;;;;;16.74;64.98;93686.41;513705;28;900;-45
2023/09/01 00:26:59;;;;;;;5.47;3.58;;;;;;;16.73;65.08;93682.19;513847;28;789;-45
2023/09/01 00:27:15;;;;;;;5.25;3.47;;;;;;;16.72;65.02;93677.19;513829;28;1246;-46
2023/09/01 00:27:31;;;;;;;4.90;3.37;;;;;;;16.70;65.10;93680.53;513969;28;1540;-46
2023/09/01 00:27:46;;;;;;;5.10;3.58;;;;;;;16.71;64.96;93684.81;513869;28;893;-45
2023/09/01 00:28:01;;;;;;;5.10;3.57;;;;;;;16.71;64.99;93676.44;513898;28;844;-45
2023/09/01 00:28:17;;;;;;;4.72;3.22;;;;;;;16.73;65.00;93682.19;513444;28;1597;-46
2023/09/01 00:28:32;;;;;;;4.67;3.03;;;;;;;16.73;65.03;93684.97;512756;28;845;-45
2023/09/01 00:28:47;;;;;;;4.63;3.17;;;;;;;16.74;64.88;93680.13;513582;28;924;-45
2023/09/01 00:29:03;;;;;;;4.30;3.30;;;;;;;16.75;64.85;93681.59;513202;28;1068;-45
2023/09/01 00:29:19;;;;;;;4.90;3.38;;;;;;;16.76;64.84;93680.28;513891;28;849;-46
2023/09/01 00:29:34;;;;;;;6.47;3.67;;;;;;;16.77;64.65;93682.47;513917;28;1060;-45
2023/09/01 00:29:49;;;;;;;5.70;3.63;;;;;;;16.77;64.66;93687.31;513981;28;766;-45
2023/09/01 00:30:06;;;;;;;5.90;3.40;;;;;;;16.77;64.53;93685.25;513770;28;959;-44
2023/09/01 00:30:21;;;;;;;5.45;3.20;;;;;;;16.77;64.60;93690.84;513886;28;860;-45
2023/09/01 00:30:53;;;;;;;3.40;3.00;;;;;;;16.77;64.46;93693.63;513840;28;1028;-45
2023/09/01 00:31:08;;;;;;;4.18;2.90;;;;;;;16.78;64.44;93680.44;513836;28;860;-45
2023/09/01 00:31:23;;;;;;;3.55;2.40;;;;;;;16.78;64.39;93686.00;513946;28;869;-46
2023/09/01 00:31:39;;;;;;;3.30;2.30;;;;;;;16.79;64.34;93684.66;513995;28;758;-45
2023/09/01 00:31:54;;;;;;;3.67;2.42;;;;;;;16.78;64.35;93686.75;513354;28;1534;-46
2023/09/01 00:32:10;;;;;;;3.40;2.10;;;;;;;16.79;64.14;93682.63;513058;28;866;-45
2023/09/01 00:32:25;;;;;;;2.53;1.83;;;;;;;16.78;64.25;93681.16;513756;28;869;-45
2023/09/01 00:32:40;;;;;;;3.05;2.10;;;;;;;16.78;64.08;93681.16;511904;28;866;-44
2023/09/01 00:32:56;;;;;;;2.93;2.20;;;;;;;16.78;64.18;93677.63;511872;28;876;-45
2023/09/01 00:33:11;;;;;;;2.60;2.17;;;;;;;16.78;64.21;93686.00;512873;28;834;-45
2023/09/01 00:33:28;;;;;;;3.70;2.20;;;;;;;16.78;64.16;93680.44;513797;28;1159;-45
2023/09/01 00:33:43;;;;;;;3.67;2.08;;;;;;;16.76;64.21;93678.22;513931;28;869;-46
2023/09/01 00:33:59;;;;;;;2.13;1.73;;;;;;;16.75;64.29;93682.31;513874;28;819;-45
2023/09/01 00:34:14;;;;;;;2.63;1.80;;;;;;;16.75;64.49;93681.59;513907;28;766;-45
2023/09/01 00:34:30;;;;;;;2.63;1.95;;;;;;;16.75;64.25;93684.38;514006;28;885;-45
2023/09/01 00:34:46;;;;;;;3.60;1.92;;;;;;;16.75;64.43;93678.78;512454;28;1822;-45
2023/09/01 00:35:03;;;;;;;4.90;2.33;;;;;;;16.73;64.42;93684.22;513593;28;1052;-45
2023/09/01 00:35:20;;;;;;;3.63;2.35;;;;;;;16.76;64.35;93685.84;513872;28;884;-46
2023/09/01 00:35:36;;;;;;;3.13;2.25;;;;;;;16.76;64.35;93683.06;513856;28;888;-45
2023/09/01 00:35:52;;;;;;;3.73;2.23;;;;;;;16.76;64.45;93680.28;512003;28;832;-45
2023/09/01 00:36:14;;;;;;;3.88;2.10;;;;;;;16.77;64.42;93684.53;512135;28;963;-45
2023/09/01 00:36:30;;;;;;;4.15;2.20;;;;;;;16.78;64.32;93680.44;512819;28;1112;-44
2023/09/01 00:36:49;;;;;;;4.70;2.33;;;;;;;16.78;64.50;93683.97;513924;28;829;-45
2023/09/01 00:37:04;;;;;;;3.38;2.13;;;;;;;16.79;64.23;93687.47;513944;28;892;-46
2023/09/01 00:37:19;;;;;;;2.60;1.80;;;;;;;16.80;64.13;93691.72;513793;28;947;-47
2023/09/01 00:37:37;;;;;;;2.58;1.95;;;;;;;16.80;64.07;93688.94;512946;28;1712;-45
2023/09/01 00:37:53;;;;;;;3.17;2.15;;;;;;;16.81;63.96;93691.13;513476;28;876;-45
2023/09/01 00:38:08;;;;;;;2.78;2.05;;;;;;;16.80;64.21;93691.72;513349;28;799;-46
2023/09/01 00:38:29;;;;;;;2.50;2.00;;;;;;;16.82;64.14;93691.88;513939;28;807;-44
2023/09/01 00:38:44;;;;;;;2.10;1.88;;;;;;;16.80;64.20;93700.84;511853;28;896;-46
2023/09/01 00:38:59;;;;;;;3.43;2.13;;;;;;;16.80;63.91;93695.25;511868;28;880;-45
2023/09/01 00:39:17;;;;;;;3.87;2.30;;;;;;;16.80;64.10;93686.91;513208;28;1571;-44
2023/09/01 00:39:32;;;;;;;2.70;1.90;;;;;;;16.79;64.32;93691.00;513786;28;1191;-45
2023/09/01 00:39:48;;;;;;;2.93;2.03;;;;;;;16.80;64.20;93691.72;513248;28;904;-47
2023/09/01 00:40:04;;;;;;;3.28;2.10;;;;;;;16.78;64.38;93692.31;513886;28;785;-46
2023/09/01 00:40:19;;;;;;;3.13;2.05;;;;;;;16.79;64.36;93690.25;512064;28;1914;-45
2023/09/01 00:40:34;;;;;;;2.87;2.10;;;;;;;16.80;64.29;93691.72;513666;28;939;-46
2023/09/01 00:40:50;;;;;;;2.97;1.97;;;;;;;16.79;64.14;93687.47;512137;28;873;-45
2023/09/01 00:41:05;;;;;;;3.20;1.90;;;;;;;16.80;64.13;93686.16;513459;28;1135;-45
2023/09/01 00:41:21;;;;;;;2.43;1.60;;;;;;;16.80;64.06;93686.91;513857;28;857;-46
2023/09/01 00:41:36;;;;;;;2.33;1.40;;;;;;;16.80;64.13;93692.47;513862;28;959;-46
2023/09/01 00:41:52;;;;;;;2.93;1.70;;;;;;;16.79;64.05;93684.66;513919;28;1031;-45
2023/09/01 00:42:07;;;;;;;2.83;1.87;;;;;;;16.79;64.02;93679.84;513769;28;879;-46
2023/09/01 00:42:22;;;;;;;2.63;1.70;;;;;;;16.80;64.00;93688.94;513889;28;884;-46
2023/09/01 00:42:38;;;;;;;1.97;1.40;;;;;;;16.80;63.79;93688.94;513799;28;931;-45
2023/09/01 00:42:53;;;;;;;1.43;1.30;;;;;;;16.79;63.85;93684.66;513207;28;1711;-45
2023/09/01 00:43:08;;;;;;;1.77;1.48;;;;;;;16.79;63.95;93687.47;512856;28;853;-46
2023/09/01 00:43:25;;;;;;;1.90;1.57;;;;;;;16.77;63.98;93681.72;513917;28;1072;-45
2023/09/01 00:43:40;;;;;;;1.60;1.38;;;;;;;16.79;64.00;93685.41;513979;28;880;-46
2023/09/01 00:43:56;;;;;;;2.50;1.55;;;;;;;16.79;64.01;93685.41;513078;28;1143;-45
2023/09/01 00:44:15;;;;;;;2.72;1.67;;;;;;;16.79;63.98;93688.19;513824;28;1578;-47
2023/09/01 00:44:30;;;;;;;1.67;1.30;;;;;;;16.81;64.08;93691.13;513926;28;876;-46
2023/09/01 00:44:45;;;;;;;1.53;1.40;;;;;;;16.80;63.91;93691.72;513927;28;893;-47
2023/09/01 00:45:01;;;;;;;1.83;1.42;;;;;;;16.78;64.04;93686.75;513994;28;798;-45
2023/09/01 00:45:16;;;;;;;1.73;1.33;;;;;;;16.79;63.97;93687.47;513808;28;841;-45
2023/09/01 00:45:32;;;;;;;1.80;1.53;;;;;;;16.80;63.94;93683.38;513937;28;1198;-45
2023/09/01 00:45:47;;;;;;;2.10;1.80;;;;;;;16.80;63.83;93686.16;513927;28;1003;-45
2023/09/01 00:46:03;;;;;;;2.08;1.75;;;;;;;16.77;63.97;93679.69;513891;28;971;-46
2023/09/01 00:46:19;;;;;;;1.95;1.60;;;;;;;16.80;63.99;93680.56;513835;28;805;-46
2023/09/01 00:46:34;;;;;;;2.10;1.57;;;;;;;16.80;63.88;93683.38;513768;28;766;-46
2023/09/01 00:46:49;;;;;;;2.27;1.57;;;;;;;16.80;63.90;93688.94;513804;28;809;-45
2023/09/01 00:47:05;;;;;;;1.88;1.42;;;;;;;16.79;63.80;93688.19;513623;28;1127;-46
2023/09/01 00:47:21;;;;;;;2.50;1.50;;;;;;;16.80;63.91;93680.56;513806;28;856;-45
2023/09/01 00:47:36;;;;;;;2.43;1.60;;;;;;;16.77;63.68;93674.09;510643;29;1709;-46
2023/09/01 00:47:52;;;;;;;1.98;1.58;;;;;;;16.79;63.83;93684.66;511167;29;810;-45
2023/09/01 00:48:08;;;;;;;2.93;1.53;;;;;;;16.68;64.01;93669.97;510661;28;901;-45
2023/09/01 00:48:24;;;;;;;3.33;1.60;;;;;;;16.78;63.92;93680.44;509774;29;873;-46
2023/09/01 00:48:39;;;;;;;1.90;1.42;;;;;;;16.76;63.85;93681.03;509749;29;954;-46
2023/09/01 00:48:57;;;;;;;3.00;1.50;;;;;;;16.77;63.89;93679.69;509759;29;810;-46
2023/09/01 00:49:15;;;;;;;3.00;1.60;;;;;;;16.76;63.98;93675.44;509770;29;964;-46
2023/09/01 00:49:30;;;;;;;1.75;1.65;;;;;;;16.73;64.04;93682.19;510837;29;1095;-46
2023/09/01 00:49:46;;;;;;;2.20;1.77;;;;;;;16.72;64.15;93680.69;509715;29;870;-45
2023/09/01 00:50:07;;;;;;;2.25;1.80;;;;;;;16.71;64.29;93681.28;507729;29;1799;-45
2023/09/01 00:50:23;;;;;;;2.30;1.80;;;;;;;16.70;64.32;93686.13;509692;29;994;-45
2023/09/01 00:50:40;;;;;;;2.40;1.80;;;;;;;16.71;64.31;93687.59;509820;29;834;-45
2023/09/01 00:50:56;;;;;;;2.13;1.55;;;;;;;16.71;64.45;93687.59;507808;29;901;-45
2023/09/01 00:51:11;;;;;;;2.33;1.70;;;;;;;16.71;64.18;93687.59;507806;29;854;-45
2023/09/01 00:51:27;;;;;;;2.05;1.70;;;;;;;16.61;64.28;93673.63;509352;29;1117;-47
2023/09/01 00:51:46;;;;;;;2.08;1.70;;;;;;;16.72;64.14;93686.28;511323;29;890;-46
2023/09/01 00:52:02;;;;;;;2.05;1.63;;;;;;;16.72;64.04;93689.06;511168;29;1760;-45
2023/09/01 00:52:17;;;;;;;1.48;1.27;;;;;;;16.72;64.01;93691.13;511674;28;836;-46
2023/09/01 00:52:34;;;;;;;1.40;1.30;;;;;;;16.69;63.93;93687.44;511729;29;885;-46
2023/09/01 00:52:49;;;;;;;1.85;1.45;;;;;;;16.71;63.98;93692.44;511681;28;930;-45
2023/09/01 00:53:05;;;;;;;2.07;1.43;;;;;;;16.71;63.89;93695.22;513144;28;1089;-46
2023/09/01 00:53:21;;;;;;;2.20;1.67;;;;;;;16.70;63.98;93691.69;513717;28;875;-47
2023/09/01 00:53:37;;;;;;;2.22;1.73;;;;;;;16.69;63.89;93690.25;513723;28;1059;-45
2023/09/01 00:53:52;;;;;;;1.80;1.57;;;;;;;16.67;63.91;93685.22;513689;28;826;-45
2023/09/01 00:54:08;;;;;;;1.77;1.42;;;;;;;16.68;63.88;93683.19;511665;29;790;-46
2023/09/01 00:54:23;;;;;;;2.03;1.50;;;;;;;16.67;63.90;93696.38;511734;28;908;-45
2023/09/01 00:54:39;;;;;;;2.03;1.50;;;;;;;16.67;63.81;93687.31;512282;28;1250;-46
2023/09/01 00:54:54;;;;;;;1.87;1.53;;;;;;;16.65;64.06;93693.44;513766;28;821;-46
2023/09/01 00:55:10;;;;;;;1.90;1.70;;;;;;;16.64;63.97;93691.25;513651;28;894;-46
2023/09/01 00:55:25;;;;;;;1.80;1.47;;;;;;;16.62;63.83;93691.84;511720;28;1074;-47
2023/09/01 00:55:40;;;;;;;1.97;1.57;;;;;;;16.62;64.07;93694.63;511100;29;1775;-46
2023/09/01 00:55:58;;;;;;;1.95;1.70;;;;;;;16.64;64.08;93691.25;511066;28;1057;-45
2023/09/01 00:56:13;;;;;;;1.85;1.50;;;;;;;16.63;64.12;93682.13;513732;28;942;-46
2023/09/01 00:56:29;;;;;;;1.52;1.30;;;;;;;16.61;64.16;93693.13;513734;28;940;-46
2023/09/01 00:56:44;;;;;;;1.33;1.23;;;;;;;16.56;64.14;93674.66;513655;28;880;-45
2023/09/01 00:57:00;;;;;;;1.60;1.20;;;;;;;16.63;64.29;93690.50;513773;28;814;-46
2023/09/01 00:57:15;;;;;;;1.73;1.38;;;;;;;16.62;64.40;93691.09;513746;28;860;-46
2023/09/01 00:57:30;;;;;;;2.30;1.73;;;;;;;16.63;64.27;93687.72;513824;28;1246;-45
2023/09/01 00:57:46;;;;;;;2.97;1.80;;;;;;;16.63;64.24;93689.78;513892;28;899;-46
2023/09/01 00:58:02;;;;;;;2.70;1.67;;;;;;;16.63;64.29;93687.72;513852;28;856;-46
2023/09/01 00:58:17;;;;;;;2.00;1.60;;;;;;;16.63;64.24;93692.59;513250;28;1839;-45
2023/09/01 00:58:32;;;;;;;2.13;1.60;;;;;;;16.64;64.23;93692.00;513636;28;825;-44
2023/09/01 00:58:48;;;;;;;2.03;1.58;;;;;;;16.64;64.13;93694.78;513781;28;818;-46
2023/09/01 00:59:04;;;;;;;1.97;1.50;;;;;;;16.57;64.24;93676.13;513628;28;1183;-46
2023/09/01 00:59:19;;;;;;;1.83;1.50;;;;;;;16.64;64.18;93697.56;513696;28;856;-46
2023/09/01 00:59:36;;;;;;;1.43;1.33;;;;;;;16.65;64.07;93692.72;513803;28;822;-46
2023/09/01 00:59:51;;;;;;;1.73;1.50;;;;;;;16.65;63.93;93692.72;513752;28;849;-45
2023/09/01 01:00:07;;;;;;;1.97;1.40;;;;;;;16.65;64.09;93696.22;513631;28;884;-46
2023/09/01 01:00:22;;;;;;;1.50;1.40;;;;;;;16.65;63.95;93687.88;513688;28;1965;-46
2023/09/01 01:00:39;;;;;;;1.70;1.60;;;;;;;16.65;64.02;93701.09;513586;28;1159;-46
2023/09/01 01:00:58;;;;;;;2.67;1.70;;;;;;;16.65;63.94;93692.72;513756;28;856;-46
2023/09/01 01:01:13;;;;;;;2.13;1.60;;;;;;;16.62;63.94;93694.63;513740;28;955;-45
2023/09/01 01:01:28;;;;;;;1.80;1.40;;;;;;;16.60;64.16;93691.69;513723;28;805;-45
2023/09/01 01:01:44;;;;;;;2.47;1.60;;;;;;;16.60;64.30;93697.25;513888;28;809;-45
2023/09/01 01:02:00;;;;;;;3.05;1.80;;;;;;;16.57;64.20;93692.84;513715;28;1159;-45
2023/09/01 01:02:15;;;;;;;2.63;1.77;;;;;;;16.57;64.11;93697.69;513850;28;889;-46
2023/09/01 01:02:31;;;;;;;2.58;1.80;;;;;;;16.58;64.17;93696.38;513020;28;1759;-45
2023/09/01 01:02:47;;;;;;;2.63;1.73;;;;;;;16.56;64.17;93685.81;512482;28;860;-47
2023/09/01 01:03:05;;;;;;;2.20;1.60;;;;;;;16.58;64.11;93697.13;513659;28;889;-45
2023/09/01 01:03:21;;;;;;;1.80;1.60;;;;;;;16.57;64.12;93692.84;515524;28;935;-46
2023/09/01 01:03:38;;;;;;;2.08;1.73;;;;;;;16.58;64.08;93690.78;513974;28;1157;-46
2023/09/01 01:03:53;;;;;;;2.60;1.98;;;;;;;16.58;64.05;93685.97;513666;28;1017;-46
2023/09/01 01:04:09;;;;;;;2.20;1.73;;;;;;;16.59;63.98;93695.03;513640;28;875;-45
2023/09/01 01:04:25;;;;;;;1.90;1.60;;;;;;;16.59;64.10;93700.63;513568;28;1211;-45
2023/09/01 01:04:40;;;;;;;2.63;1.65;;;;;;;16.60;64.17;93693.72;511738;29;1048;-47
2023/09/01 01:04:56;;;;;;;2.20;1.47;;;;;;;16.59;64.35;93693.00;511581;29;1159;-45
2023/09/01 01:05:15;;;;;;;2.30;1.40;;;;;;;16.60;64.01;93694.47;511045;29;1590;-46
2023/09/01 01:05:41;;;;;;;2.78;1.60;;;;;;;16.60;64.19;93694.47;510401;29;944;-46
2023/09/01 01:06:30;;;;;;;2.20;1.50;;;;;;;16.61;64.13;93692.44;509570;29;944;-45
2023/09/01 01:07:25;;;;;;;2.45;1.80;;;;;;;16.60;63.94;93696.53;510142;29;906;-45
2023/09/01 01:07:58;;;;;;;2.60;1.80;;;;;;;16.50;63.76;93679.03;511729;29;907;-45
2023/09/01 01:08:52;;;;;;;2.17;1.55;;;;;;;16.59;63.66;93689.47;513572;28;955;-45
2023/09/01 01:09:38;;;;;;;1.88;1.50;;;;;;;16.56;63.49;93688.59;509306;29;1208;-47
2023/09/01 01:09:56;;;;;;;2.72;1.73;;;;;;;16.52;63.65;93693.84;509449;29;1598;-45
2023/09/01 01:10:18;;;;;;;2.25;1.45;;;;;;;16.52;63.68;93693.13;511378;29;885;-46
2023/09/01 01:10:47;;;;;;;1.88;1.30;;;;;;;16.52;63.69;93691.06;511190;29;1705;-46
2023/09/01 01:11:13;;;;;;;1.40;1.30;;;;;;;16.53;63.61;93689.75;508651;29;1734;-46
2023/09/01 01:11:56;;;;;;;1.50;1.40;;;;;;;16.54;63.58;93696.81;509579;29;920;-45
2023/09/01 01:12:14;;;;;;;2.28;1.65;;;;;;;16.55;63.69;93692.69;509585;29;871;-47
2023/09/01 01:12:44;;;;;;;2.22;1.60;;;;;;;16.56;63.63;93688.59;509688;29;828;-46
2023/09/01 01:13:06;;;;;;;2.55;1.90;;;;;;;16.57;63.70;93687.25;508944;29;905;-46
2023/09/01 01:13:22;;;;;;;2.58;1.83;;;;;;;16.56;63.63;93691.38;509390;29;986;-46
2023/09/01 01:13:44;;;;;;;2.75;1.88;;;;;;;16.55;63.47;93689.91;509519;29;884;-45
2023/09/01 01:14:04;;;;;;;1.60;1.50;;;;;;;16.52;63.51;93687.56;509300;29;955;-45
2023/09/01 01:14:26;;;;;;;1.67;1.50;;;;;;;16.46;63.75;93689.84;507530;29;824;-45
2023/09/01 01:14:52;;;;;;;3.25;1.58;;;;;;;16.45;63.65;93689.13;507691;29;950;-46
2023/09/01 01:15:09;;;;;;;1.95;1.52;;;;;;;16.46;63.55;93689.84;509145;29;1097;-46
2023/09/01 01:15:26;;;;;;;1.63;1.48;;;;;;;16.46;63.49;93687.78;511776;28;883;-46
2023/09/01 01:15:43;;;;;;;1.60;1.48;;;;;;;16.47;63.55;93694.84;513789;28;919;-46
2023/09/01 01:15:59;;;;;;;1.90;1.65;;;;;;;16.47;63.72;93689.28;513748;28;919;-47
2023/09/01 01:16:17;;;;;;;1.97;1.53;;;;;;;16.49;63.68;93697.03;513786;28;874;-45
2023/09/01 01:16:33;;;;;;;2.78;1.48;;;;;;;16.48;63.90;93690.72;513945;28;925;-45
2023/09/01 01:16:50;;;;;;;2.53;1.50;;;;;;;16.49;63.65;93694.25;513888;28;835;-47
2023/09/01 01:17:06;;;;;;;1.90;1.60;;;;;;;16.49;63.69;93688.69;515574;28;1222;-45
2023/09/01 01:17:22;;;;;;;2.00;1.73;;;;;;;16.43;63.64;93674.28;515725;28;892;-46
2023/09/01 01:17:42;;;;;;;1.60;1.50;;;;;;;16.51;63.54;93689.59;514889;28;1735;-46
2023/09/01 01:17:57;;;;;;;1.52;1.30;;;;;;;16.51;63.40;93686.81;515128;28;1151;-46
2023/09/01 01:18:14;;;;;;;1.70;1.33;;;;;;;16.52;63.40;93693.84;515689;28;794;-47
2023/09/01 01:18:32;;;;;;;1.67;1.25;;;;;;;16.51;63.29;93686.06;515748;28;896;-46
2023/09/01 01:18:49;;;;;;;1.40;1.30;;;;;;;16.52;63.09;93687.56;515651;28;955;-46
2023/09/01 01:19:21;;;;;;;1.48;1.38;;;;;;;16.51;63.00;93686.81;513891;28;964;-46
2023/09/01 01:19:53;;;;;;;2.38;1.30;;;;;;;16.50;62.99;93690.91;511649;29;913;-45
2023/09/01 01:20:14;;;;;;;2.30;1.30;;;;;;;16.50;62.92;93690.19;511300;29;1831;-46
2023/09/01 01:20:42;;;;;;;1.38;1.27;;;;;;;16.49;63.11;93689.41;510927;29;1956;-46
2023/09/01 01:21:10;;;;;;;1.92;1.67;;;;;;;16.49;63.15;93688.69;512439;28;1333;-46
2023/09/01 01:21:27;;;;;;;2.22;1.20;;;;;;;16.48;63.04;93687.22;511983;28;888;-46
2023/09/01 01:21:44;;;;;;;1.48;1.23;;;;;;;16.46;63.13;93687.78;513736;28;940;-46
2023/09/01 01:22:00;;;;;;;1.75;1.40;;;;;;;16.43;62.99;93691.75;513096;28;1039;-46
2023/09/01 01:22:27;;;;;;;2.03;1.30;;;;;;;16.40;63.07;93692.91;513526;28;851;-46
2023/09/01 01:22:49;;;;;;;2.55;1.63;;;;;;;16.37;63.26;93694.06;513665;28;991;-46
2023/09/01 01:23:16;;;;;;;3.15;1.67;;;;;;;16.38;63.48;93686.44;513117;28;911;-46
2023/09/01 01:23:32;;;;;;;3.47;1.50;;;;;;;16.37;63.85;93688.47;511607;28;1032;-45
2023/09/01 01:23:48;;;;;;;2.30;1.57;;;;;;;16.36;63.80;93687.03;510026;29;832;-46
2023/09/01 01:24:05;;;;;;;2.00;1.42;;;;;;;16.33;64.09;93688.19;509867;29;905;-46